sensor_id;sensor_type;location;lat;lon;timestamp;pressure;altitude;pressure_sealevel;temperature;humidity
42601;BME280;28229;48.856;9.088;2023-01-25T00:00:46;99553.72;;;0.91;100.00
42601;BME280;28229;48.856;9.088;2023-01-25T00:03:12;99550.44;;;0.89;100.00
42601;BME280;28229;48.856;9.088;2023-01-25T00:05:38;99553.13;;;0.87;100.00
42601;BME280;28229;48.856;9.088;2023-01-25T00:08:05;99547.84;;;0.89;100.00
42601;BME280;28229;48.856;9.088;2023-01-25T00:10:31;99552.53;;;0.84;100.00
42601;BME280;28229;48.856;9.088;2023-01-25T00:12:57;99544.16;;;0.80;100.00
42601;BME280;28229;48.856;9.088;2023-01-25T00:15:23;99538.28;;;0.78;100.00
42601;BME280;28229;48.856;9.088;2023-01-25T00:17:49;99538.44;;;0.88;100.00
42601;BME280;28229;48.856;9.088;2023-01-25T00:20:16;99536.16;;;0.83;100.00
42601;BME280;28229;48.856;9.088;2023-01-25T00:22:42;99531.09;;;0.82;100.00
42601;BME280;28229;48.856;9.088;2023-01-25T00:25:08;99532.75;;;0.71;100.00
42601;BME280;28229;48.856;9.088;2023-01-25T00:27:47;99524.78;;;0.86;100.00
42601;BME280;28229;48.856;9.088;2023-01-25T00:39:17;99527.81;;;0.91;100.00
42601;BME280;28229;48.856;9.088;2023-01-25T00:41:44;99525.69;;;0.96;100.00
42601;BME280;28229;48.856;9.088;2023-01-25T00:44:10;99524.44;;;1.02;100.00
42601;BME280;28229;48.856;9.088;2023-01-25T00:46:37;99537.25;;;1.03;100.00
42601;BME280;28229;48.856;9.088;2023-01-25T00:49:06;99532.06;;;1.03;100.00
42601;BME280;28229;48.856;9.088;2023-01-25T00:51:33;99528.06;;;0.88;100.00
42601;BME280;28229;48.856;9.088;2023-01-25T00:53:59;99533.47;;;0.85;100.00
42601;BME280;28229;48.856;9.088;2023-01-25T00:56:25;99534.88;;;0.89;100.00
42601;BME280;28229;48.856;9.088;2023-01-25T00:58:51;99521.69;;;0.81;100.00
42601;BME280;28229;48.856;9.088;2023-01-25T01:01:19;99522.63;;;0.80;100.00
42601;BME280;28229;48.856;9.088;2023-01-25T01:03:59;99513.22;;;0.79;100.00
42601;BME280;28229;48.856;9.088;2023-01-25T01:06:25;99506.16;;;0.81;100.00
42601;BME280;28229;48.856;9.088;2023-01-25T01:09:48;99509.66;;;0.80;100.00
42601;BME280;28229;48.856;9.088;2023-01-25T01:19:54;99509.44;;;0.71;100.00
42601;BME280;28229;48.856;9.088;2023-01-25T01:22:21;99516.03;;;0.75;100.00
42601;BME280;28229;48.856;9.088;2023-01-25T01:24:47;99512.38;;;0.78;100.00
42601;BME280;28229;48.856;9.088;2023-01-25T01:27:14;99513.66;;;0.72;100.00
42601;BME280;28229;48.856;9.088;2023-01-25T01:29:40;99510.03;;;0.86;100.00
42601;BME280;28229;48.856;9.088;2023-01-25T01:32:06;99511.56;;;0.78;100.00
42601;BME280;28229;48.856;9.088;2023-01-25T01:34:33;99506.84;;;0.83;100.00
42601;BME280;28229;48.856;9.088;2023-01-25T01:36:59;99507.34;;;0.88;100.00
42601;BME280;28229;48.856;9.088;2023-01-25T01:39:25;99512.25;;;0.80;100.00
42601;BME280;28229;48.856;9.088;2023-01-25T01:41:51;99503.44;;;0.82;100.00
42601;BME280;28229;48.856;9.088;2023-01-25T01:44:20;99505.06;;;0.72;100.00
42601;BME280;28229;48.856;9.088;2023-01-25T01:46:56;99514.72;;;0.70;100.00
42601;BME280;28229;48.856;9.088;2023-01-25T01:49:30;99515.78;;;0.67;100.00
42601;BME280;28229;48.856;9.088;2023-01-25T01:52:11;99513.06;;;0.69;100.00
42601;BME280;28229;48.856;9.088;2023-01-25T01:54:47;99507.50;;;0.62;100.00
42601;BME280;28229;48.856;9.088;2023-01-25T01:57:18;99515.56;;;0.70;100.00
42601;BME280;28229;48.856;9.088;2023-01-25T02:00:04;99514.13;;;0.66;100.00
42601;BME280;28229;48.856;9.088;2023-01-25T02:02:39;99508.25;;;0.64;100.00
42601;BME280;28229;48.856;9.088;2023-01-25T02:05:20;99509.41;;;0.60;100.00
42601;BME280;28229;48.856;9.088;2023-01-25T02:07:49;99512.97;;;0.70;100.00
42601;BME280;28229;48.856;9.088;2023-01-25T02:10:19;99507.41;;;0.64;100.00
42601;BME280;28229;48.856;9.088;2023-01-25T02:12:47;99511.06;;;0.61;100.00
42601;BME280;28229;48.856;9.088;2023-01-25T02:15:13;99508.22;;;0.53;100.00
42601;BME280;28229;48.856;9.088;2023-01-25T02:17:40;99507.41;;;0.64;100.00
42601;BME280;28229;48.856;9.088;2023-01-25T02:20:21;99501.19;;;0.66;100.00
42601;BME280;28229;48.856;9.088;2023-01-25T02:26:02;99506.38;;;0.66;100.00
42601;BME280;28229;48.856;9.088;2023-01-25T02:28:34;99506.25;;;0.68;100.00
42601;BME280;28229;48.856;9.088;2023-01-25T02:31:02;99498.81;;;0.63;100.00
42601;BME280;28229;48.856;9.088;2023-01-25T02:33:29;99495.31;;;0.64;100.00
42601;BME280;28229;48.856;9.088;2023-01-25T02:36:14;99500.69;;;0.61;100.00
42601;BME280;28229;48.856;9.088;2023-01-25T02:38:51;99494.09;;;0.57;100.00
42601;BME280;28229;48.856;9.088;2023-01-25T02:41:24;99495.75;;;0.58;100.00
42601;BME280;28229;48.856;9.088;2023-01-25T02:43:50;99495.06;;;0.67;100.00
42601;BME280;28229;48.856;9.088;2023-01-25T02:46:26;99488.19;;;0.55;100.00
42601;BME280;28229;48.856;9.088;2023-01-25T02:48:54;99494.81;;;0.59;100.00
42601;BME280;28229;48.856;9.088;2023-01-25T02:51:22;99499.25;;;0.57;100.00
42601;BME280;28229;48.856;9.088;2023-01-25T02:53:49;99492.22;;;0.59;100.00
42601;BME280;28229;48.856;9.088;2023-01-25T02:56:16;99487.59;;;0.51;100.00
42601;BME280;28229;48.856;9.088;2023-01-25T02:58:43;99486.91;;;0.49;100.00
42601;BME280;28229;48.856;9.088;2023-01-25T03:01:10;99477.13;;;0.53;100.00
42601;BME280;28229;48.856;9.088;2023-01-25T03:03:37;99474.31;;;0.56;100.00
42601;BME280;28229;48.856;9.088;2023-01-25T03:06:04;99467.84;;;0.50;100.00
42601;BME280;28229;48.856;9.088;2023-01-25T03:08:30;99466.41;;;0.46;100.00
42601;BME280;28229;48.856;9.088;2023-01-25T03:10:59;99463.47;;;0.51;100.00
42601;BME280;28229;48.856;9.088;2023-01-25T03:13:30;99463.69;;;0.48;100.00
42601;BME280;28229;48.856;9.088;2023-01-25T03:16:05;99456.31;;;0.54;100.00
42601;BME280;28229;48.856;9.088;2023-01-25T03:18:33;99456.63;;;0.50;100.00
42601;BME280;28229;48.856;9.088;2023-01-25T03:21:16;99449.13;;;0.58;100.00
42601;BME280;28229;48.856;9.088;2023-01-25T03:23:44;99442.66;;;0.64;100.00
42601;BME280;28229;48.856;9.088;2023-01-25T03:26:17;99451.50;;;0.72;100.00
42601;BME280;28229;48.856;9.088;2023-01-25T03:29:10;99443.25;;;0.67;100.00
42601;BME280;28229;48.856;9.088;2023-01-25T03:31:39;99442.19;;;0.59;100.00
42601;BME280;28229;48.856;9.088;2023-01-25T03:34:07;99449.94;;;0.59;100.00
42601;BME280;28229;48.856;9.088;2023-01-25T03:36:37;99450.31;;;0.65;100.00
42601;BME280;28229;48.856;9.088;2023-01-25T03:39:03;99454.31;;;0.58;100.00
42601;BME280;28229;48.856;9.088;2023-01-25T03:41:30;99457.59;;;0.60;100.00
42601;BME280;28229;48.856;9.088;2023-01-25T03:43:59;99455.97;;;0.59;100.00
42601;BME280;28229;48.856;9.088;2023-01-25T03:46:27;99453.97;;;0.63;100.00
42601;BME280;28229;48.856;9.088;2023-01-25T03:48:53;99450.53;;;0.62;100.00
42601;BME280;28229;48.856;9.088;2023-01-25T03:51:19;99447.47;;;0.57;100.00
42601;BME280;28229;48.856;9.088;2023-01-25T03:53:47;99446.31;;;0.61;100.00
42601;BME280;28229;48.856;9.088;2023-01-25T03:56:16;99449.50;;;0.65;100.00
42601;BME280;28229;48.856;9.088;2023-01-25T03:58:53;99443.34;;;0.66;100.00
42601;BME280;28229;48.856;9.088;2023-01-25T04:01:19;99441.72;;;0.65;100.00
42601;BME280;28229;48.856;9.088;2023-01-25T04:03:45;99446.44;;;0.60;100.00
42601;BME280;28229;48.856;9.088;2023-01-25T04:06:11;99441.03;;;0.63;100.00
42601;BME280;28229;48.856;9.088;2023-01-25T04:08:38;99444.75;;;0.59;100.00
42601;BME280;28229;48.856;9.088;2023-01-25T04:11:07;99436.88;;;0.60;100.00
42601;BME280;28229;48.856;9.088;2023-01-25T04:13:36;99440.91;;;0.64;100.00
42601;BME280;28229;48.856;9.088;2023-01-25T04:16:07;99442.06;;;0.60;100.00
42601;BME280;28229;48.856;9.088;2023-01-25T04:19:10;99436.44;;;0.66;100.00
42601;BME280;28229;48.856;9.088;2023-01-25T04:21:38;99436.44;;;0.66;100.00
42601;BME280;28229;48.856;9.088;2023-01-25T04:24:04;99435.84;;;0.63;100.00
42601;BME280;28229;48.856;9.088;2023-01-25T04:26:34;99432.88;;;0.67;100.00
42601;BME280;28229;48.856;9.088;2023-01-25T04:29:02;99433.84;;;0.66;100.00
42601;BME280;28229;48.856;9.088;2023-01-25T04:31:28;99426.31;;;0.63;100.00
42601;BME280;28229;48.856;9.088;2023-01-25T04:33:57;99432.53;;;0.72;100.00
42601;BME280;28229;48.856;9.088;2023-01-25T04:36:23;99423.97;;;0.71;100.00
42601;BME280;28229;48.856;9.088;2023-01-25T04:38:50;99422.53;;;0.67;100.00
42601;BME280;28229;48.856;9.088;2023-01-25T04:41:16;99420.19;;;0.64;100.00
42601;BME280;28229;48.856;9.088;2023-01-25T04:43:44;99423.94;;;0.60;100.00
42601;BME280;28229;48.856;9.088;2023-01-25T04:46:10;99421.47;;;0.70;100.00
42601;BME280;28229;48.856;9.088;2023-01-25T04:48:38;99425.00;;;0.69;100.00
42601;BME280;28229;48.856;9.088;2023-01-25T04:51:06;99420.41;;;0.72;100.00
42601;BME280;28229;48.856;9.088;2023-01-25T04:53:34;99424.19;;;0.68;100.00
42601;BME280;28229;48.856;9.088;2023-01-25T04:56:01;99429.13;;;0.71;100.00
42601;BME280;28229;48.856;9.088;2023-01-25T04:58:32;99418.03;;;0.69;100.00
42601;BME280;28229;48.856;9.088;2023-01-25T05:01:02;99421.13;;;0.74;100.00
42601;BME280;28229;48.856;9.088;2023-01-25T05:03:28;99419.47;;;0.62;100.00
42601;BME280;28229;48.856;9.088;2023-01-25T05:05:55;99425.47;;;0.63;100.00
42601;BME280;28229;48.856;9.088;2023-01-25T05:08:24;99424.41;;;0.65;100.00
42601;BME280;28229;48.856;9.088;2023-01-25T05:10:53;99410.41;;;0.68;100.00
42601;BME280;28229;48.856;9.088;2023-01-25T05:13:26;99414.75;;;0.67;100.00
42601;BME280;28229;48.856;9.088;2023-01-25T05:16:04;99413.00;;;0.68;100.00
42601;BME280;28229;48.856;9.088;2023-01-25T05:18:31;99415.13;;;0.74;100.00
42601;BME280;28229;48.856;9.088;2023-01-25T05:20:57;99404.50;;;0.66;100.00
42601;BME280;28229;48.856;9.088;2023-01-25T05:23:25;99405.81;;;0.60;100.00
42601;BME280;28229;48.856;9.088;2023-01-25T05:25:52;99408.88;;;0.65;100.00
42601;BME280;28229;48.856;9.088;2023-01-25T05:28:38;99408.97;;;0.64;100.00
42601;BME280;28229;48.856;9.088;2023-01-25T05:31:26;99413.34;;;0.63;100.00
42601;BME280;28229;48.856;9.088;2023-01-25T05:33:52;99414.31;;;0.73;100.00
42601;BME280;28229;48.856;9.088;2023-01-25T05:36:20;99416.31;;;0.70;100.00
42601;BME280;28229;48.856;9.088;2023-01-25T05:38:46;99413.34;;;0.74;100.00
42601;BME280;28229;48.856;9.088;2023-01-25T05:41:13;99410.28;;;0.69;100.00
42601;BME280;28229;48.856;9.088;2023-01-25T05:43:39;99411.44;;;0.76;100.00
42601;BME280;28229;48.856;9.088;2023-01-25T05:46:06;99414.75;;;0.67;100.00
42601;BME280;28229;48.856;9.088;2023-01-25T05:48:33;99410.75;;;0.74;100.00
42601;BME280;28229;48.856;9.088;2023-01-25T05:51:00;99404.06;;;0.72;100.00
42601;BME280;28229;48.856;9.088;2023-01-25T05:53:28;99408.41;;;0.71;100.00
42601;BME280;28229;48.856;9.088;2023-01-25T05:55:54;99397.94;;;0.84;100.00
42601;BME280;28229;48.856;9.088;2023-01-25T05:58:21;99401.09;;;0.88;100.00
42601;BME280;28229;48.856;9.088;2023-01-25T06:00:47;99398.16;;;0.81;100.00
42601;BME280;28229;48.856;9.088;2023-01-25T06:03:25;99391.66;;;0.87;100.00
42601;BME280;28229;48.856;9.088;2023-01-25T06:05:58;99393.91;;;0.80;100.00
42601;BME280;28229;48.856;9.088;2023-01-25T06:08:30;99396.84;;;0.87;100.00
42601;BME280;28229;48.856;9.088;2023-01-25T06:10:56;99387.78;;;0.81;100.00
42601;BME280;28229;48.856;9.088;2023-01-25T06:13:23;99390.72;;;0.76;100.00
42601;BME280;28229;48.856;9.088;2023-01-25T06:15:54;99389.69;;;0.79;100.00
42601;BME280;28229;48.856;9.088;2023-01-25T06:18:47;99390.28;;;0.83;100.00
42601;BME280;28229;48.856;9.088;2023-01-25T06:21:33;99388.50;;;0.83;100.00
42601;BME280;28229;48.856;9.088;2023-01-25T06:24:05;99395.44;;;0.83;100.00
42601;BME280;28229;48.856;9.088;2023-01-25T06:26:31;99390.84;;;0.86;100.00
42601;BME280;28229;48.856;9.088;2023-01-25T06:28:57;99387.06;;;0.90;100.00
42601;BME280;28229;48.856;9.088;2023-01-25T06:31:23;99395.53;;;0.92;100.00
42601;BME280;28229;48.856;9.088;2023-01-25T06:33:51;99392.84;;;0.94;100.00
42601;BME280;28229;48.856;9.088;2023-01-25T06:36:20;99385.53;;;0.99;100.00
42601;BME280;28229;48.856;9.088;2023-01-25T06:38:48;99385.31;;;0.91;100.00
42601;BME280;28229;48.856;9.088;2023-01-25T06:41:15;99383.19;;;0.96;100.00
42601;BME280;28229;48.856;9.088;2023-01-25T06:43:41;99382.94;;;0.99;100.00
42601;BME280;28229;48.856;9.088;2023-01-25T06:46:09;99381.50;;;1.06;100.00
42601;BME280;28229;48.856;9.088;2023-01-25T06:48:37;99379.16;;;1.14;100.00
42601;BME280;28229;48.856;9.088;2023-01-25T06:51:05;99376.81;;;1.00;100.00
42601;BME280;28229;48.856;9.088;2023-01-25T06:53:34;99371.88;;;0.97;100.00
42601;BME280;28229;48.856;9.088;2023-01-25T06:56:05;99378.22;;;1.04;100.00
42601;BME280;28229;48.856;9.088;2023-01-25T06:58:32;99376.81;;;1.00;100.00
42601;BME280;28229;48.856;9.088;2023-01-25T07:01:01;99372.56;;;0.99;100.00
42601;BME280;28229;48.856;9.088;2023-01-25T07:03:28;99374.94;;;1.02;100.00
42601;BME280;28229;48.856;9.088;2023-01-25T07:05:59;99367.13;;;1.13;100.00
42601;BME280;28229;48.856;9.088;2023-01-25T07:08:26;99373.47;;;1.21;100.00
42601;BME280;28229;48.856;9.088;2023-01-25T07:11:00;99366.25;;;1.36;100.00
42601;BME280;28229;48.856;9.088;2023-01-25T07:13:29;99363.28;;;1.40;100.00
42601;BME280;28229;48.856;9.088;2023-01-25T07:16:00;99360.97;;;1.26;100.00
42601;BME280;28229;48.856;9.088;2023-01-25T07:18:28;99367.50;;;1.09;100.00
42601;BME280;28229;48.856;9.088;2023-01-25T07:21:02;99364.06;;;1.08;100.00
42601;BME280;28229;48.856;9.088;2023-01-25T07:23:30;99363.59;;;1.14;100.00
42601;BME280;28229;48.856;9.088;2023-01-25T07:25:57;99363.72;;;1.13;100.00
42601;BME280;28229;48.856;9.088;2023-01-25T07:28:24;99365.91;;;1.29;100.00
42601;BME280;28229;48.856;9.088;2023-01-25T07:30:50;99365.88;;;1.40;100.00
42601;BME280;28229;48.856;9.088;2023-01-25T07:33:16;99362.47;;;1.40;100.00
42601;BME280;28229;48.856;9.088;2023-01-25T07:35:42;99355.72;;;1.48;100.00
42601;BME280;28229;48.856;9.088;2023-01-25T07:38:09;99354.00;;;1.26;100.00
42601;BME280;28229;48.856;9.088;2023-01-25T07:40:35;99350.38;;;1.29;100.00
42601;BME280;28229;48.856;9.088;2023-01-25T07:43:01;99349.94;;;1.12;100.00
42601;BME280;28229;48.856;9.088;2023-01-25T07:45:29;99337.09;;;1.11;100.00
42601;BME280;28229;48.856;9.088;2023-01-25T07:47:57;99345.41;;;1.26;100.00
42601;BME280;28229;48.856;9.088;2023-01-25T07:50:27;99346.50;;;1.23;100.00
42601;BME280;28229;48.856;9.088;2023-01-25T07:52:54;99350.56;;;1.37;100.00
42601;BME280;28229;48.856;9.088;2023-01-25T07:55:20;99350.38;;;1.29;100.00
42601;BME280;28229;48.856;9.088;2023-01-25T07:57:47;99348.25;;;1.23;100.00
42601;BME280;28229;48.856;9.088;2023-01-25T08:00:13;99351.34;;;1.17;100.00
42601;BME280;28229;48.856;9.088;2023-01-25T08:02:40;99353.59;;;1.10;100.00
42601;BME280;28229;48.856;9.088;2023-01-25T08:05:06;99361.94;;;1.13;100.00
42601;BME280;28229;48.856;9.088;2023-01-25T08:07:33;99364.47;;;1.04;100.00
42601;BME280;28229;48.856;9.088;2023-01-25T08:09:59;99359.72;;;1.09;100.00
42601;BME280;28229;48.856;9.088;2023-01-25T08:12:25;99361.25;;;1.11;100.00
42601;BME280;28229;48.856;9.088;2023-01-25T08:14:52;99361.00;;;1.03;100.00
42601;BME280;28229;48.856;9.088;2023-01-25T08:17:18;99361.41;;;0.99;100.00
42601;BME280;28229;48.856;9.088;2023-01-25T08:19:45;99357.38;;;1.06;100.00
42601;BME280;28229;48.856;9.088;2023-01-25T08:22:11;99360.06;;;1.16;100.00
42601;BME280;28229;48.856;9.088;2023-01-25T08:24:38;99361.00;;;1.14;100.00
42601;BME280;28229;48.856;9.088;2023-01-25T08:27:05;99365.00;;;1.19;100.00
42601;BME280;28229;48.856;9.088;2023-01-25T08:29:32;99365.69;;;1.21;100.00
42601;BME280;28229;48.856;9.088;2023-01-25T08:31:58;99362.88;;;1.24;100.00
42601;BME280;28229;48.856;9.088;2023-01-25T08:34:25;99359.69;;;1.20;100.00
42601;BME280;28229;48.856;9.088;2023-01-25T08:36:51;99356.75;;;1.13;99.97
42601;BME280;28229;48.856;9.088;2023-01-25T08:39:17;99354.41;;;1.22;100.00
42601;BME280;28229;48.856;9.088;2023-01-25T08:41:43;99359.84;;;1.07;100.00
42601;BME280;28229;48.856;9.088;2023-01-25T08:44:10;99347.13;;;1.04;99.98
42601;BME280;28229;48.856;9.088;2023-01-25T08:46:36;99343.13;;;1.00;99.92
42601;BME280;28229;48.856;9.088;2023-01-25T08:49:03;99347.47;;;1.00;100.00
42601;BME280;28229;48.856;9.088;2023-01-25T08:51:30;99339.13;;;0.96;100.00
42601;BME280;28229;48.856;9.088;2023-01-25T08:54:01;99335.09;;;1.03;100.00
42601;BME280;28229;48.856;9.088;2023-01-25T08:56:27;99333.94;;;0.96;100.00
42601;BME280;28229;48.856;9.088;2023-01-25T08:58:53;99333.94;;;1.07;100.00
42601;BME280;28229;48.856;9.088;2023-01-25T09:01:19;99324.50;;;1.06;99.65
42601;BME280;28229;48.856;9.088;2023-01-25T09:03:48;99322.13;;;1.14;100.00
42601;BME280;28229;48.856;9.088;2023-01-25T09:06:15;99325.78;;;1.12;100.00
42601;BME280;28229;48.856;9.088;2023-01-25T09:08:42;99325.88;;;1.22;100.00
42601;BME280;28229;48.856;9.088;2023-01-25T09:11:21;99327.72;;;1.31;100.00
42601;BME280;28229;48.856;9.088;2023-01-25T09:13:48;99324.19;;;1.32;99.83
42601;BME280;28229;48.856;9.088;2023-01-25T09:16:22;99329.22;;;1.33;99.60
42601;BME280;28229;48.856;9.088;2023-01-25T09:18:57;99324.50;;;1.39;99.11
42601;BME280;28229;48.856;9.088;2023-01-25T09:21:24;99319.81;;;1.32;97.56
42601;BME280;28229;48.856;9.088;2023-01-25T09:23:51;99313.03;;;1.20;98.17
42601;BME280;28229;48.856;9.088;2023-01-25T09:26:17;99318.00;;;1.12;97.78
42601;BME280;28229;48.856;9.088;2023-01-25T09:28:48;99323.03;;;1.25;98.27
42601;BME280;28229;48.856;9.088;2023-01-25T09:31:17;99323.03;;;1.25;98.40
42601;BME280;28229;48.856;9.088;2023-01-25T09:34:02;99310.50;;;1.30;99.04
42601;BME280;28229;48.856;9.088;2023-01-25T09:36:28;99311.84;;;1.24;97.83
42601;BME280;28229;48.856;9.088;2023-01-25T09:38:55;99312.97;;;1.31;97.92
42601;BME280;28229;48.856;9.088;2023-01-25T09:52:52;99321.28;;;1.25;97.15
42601;BME280;28229;48.856;9.088;2023-01-25T09:55:27;99320.63;;;1.33;97.62
42601;BME280;28229;48.856;9.088;2023-01-25T09:57:56;99308.88;;;1.29;97.33
42601;BME280;28229;48.856;9.088;2023-01-25T10:00:36;99316.72;;;1.39;98.08
42601;BME280;28229;48.856;9.088;2023-01-25T10:03:17;99315.59;;;1.52;98.29
42601;BME280;28229;48.856;9.088;2023-01-25T10:05:50;99312.53;;;1.59;96.61
42601;BME280;28229;48.856;9.088;2023-01-25T10:08:39;99312.81;;;1.44;96.15
42601;BME280;28229;48.856;9.088;2023-01-25T10:11:25;99303.56;;;1.51;96.18
42601;BME280;28229;48.856;9.088;2023-01-25T10:13:53;99304.53;;;1.50;94.84
42601;BME280;28229;48.856;9.088;2023-01-25T10:16:26;99307.13;;;1.50;94.75
42601;BME280;28229;48.856;9.088;2023-01-25T10:19:14;99308.06;;;1.49;95.58
42601;BME280;28229;48.856;9.088;2023-01-25T10:22:16;99305.47;;;1.49;94.80
42601;BME280;28229;48.856;9.088;2023-01-25T10:24:57;99300.16;;;1.51;94.40
42601;BME280;28229;48.856;9.088;2023-01-25T10:27:47;99300.28;;;1.49;94.52
42601;BME280;28229;48.856;9.088;2023-01-25T10:30:34;99296.81;;;1.60;96.10
42601;BME280;28229;48.856;9.088;2023-01-25T10:33:16;99288.53;;;1.66;95.17
42601;BME280;28229;48.856;9.088;2023-01-25T10:35:46;99288.44;;;1.68;94.36
42601;BME280;28229;48.856;9.088;2023-01-25T10:38:24;99279.19;;;1.75;93.59
42601;BME280;28229;48.856;9.088;2023-01-25T10:41:00;99285.94;;;1.66;92.80
42601;BME280;28229;48.856;9.088;2023-01-25T10:43:29;99274.94;;;1.74;93.25
42601;BME280;28229;48.856;9.088;2023-01-25T10:45:55;99285.72;;;1.69;91.71
42601;BME280;28229;48.856;9.088;2023-01-25T10:48:35;99269.81;;;1.63;92.34
42601;BME280;28229;48.856;9.088;2023-01-25T10:51:02;99279.19;;;1.75;92.98
42601;BME280;28229;48.856;9.088;2023-01-25T10:56:21;99267.25;;;1.73;93.04
42601;BME280;28229;48.856;9.088;2023-01-25T10:58:51;99269.28;;;1.69;92.96
42601;BME280;28229;48.856;9.088;2023-01-25T11:03:54;99264.31;;;1.56;92.65
42601;BME280;28229;48.856;9.088;2023-01-25T11:06:37;99263.94;;;1.61;93.05
42601;BME280;28229;48.856;9.088;2023-01-25T11:12:00;99253.59;;;1.49;92.52
42601;BME280;28229;48.856;9.088;2023-01-25T11:14:29;99241.06;;;1.33;92.22
42601;BME280;28229;48.856;9.088;2023-01-25T11:16:58;99245.28;;;1.25;93.01
42601;BME280;28229;48.856;9.088;2023-01-25T11:19:34;99251.16;;;1.27;93.25
42601;BME280;28229;48.856;9.088;2023-01-25T11:22:03;99244.25;;;1.37;93.76
42601;BME280;28229;48.856;9.088;2023-01-25T11:24:33;99247.81;;;1.36;94.49
42601;BME280;28229;48.856;9.088;2023-01-25T11:27:12;99239.13;;;1.26;94.00
42601;BME280;28229;48.856;9.088;2023-01-25T11:29:39;99244.81;;;1.41;95.22
42601;BME280;28229;48.856;9.088;2023-01-25T11:32:15;99245.09;;;1.38;94.31
42601;BME280;28229;48.856;9.088;2023-01-25T11:34:45;99224.25;;;1.28;93.43
42601;BME280;28229;48.856;9.088;2023-01-25T11:45:32;99210.91;;;1.11;93.55
42601;BME280;28229;48.856;9.088;2023-01-25T11:50:48;99201.06;;;1.05;94.32
42601;BME280;28229;48.856;9.088;2023-01-25T11:56:37;99189.88;;;1.26;94.83
42601;BME280;28229;48.856;9.088;2023-01-25T12:07:23;99167.88;;;1.20;93.35
42601;BME280;28229;48.856;9.088;2023-01-25T12:15:26;99151.31;;;1.11;93.54
42601;BME280;28229;48.856;9.088;2023-01-25T12:18:02;99148.63;;;1.23;93.13
42601;BME280;28229;48.856;9.088;2023-01-25T12:21:02;99142.06;;;1.19;93.69
42601;BME280;28229;48.856;9.088;2023-01-25T12:24:03;99131.91;;;1.27;94.16
42601;BME280;28229;48.856;9.088;2023-01-25T12:26:50;99126.44;;;1.30;93.65
42601;BME280;28229;48.856;9.088;2023-01-25T12:29:29;99114.09;;;1.43;94.27
42601;BME280;28229;48.856;9.088;2023-01-25T12:32:10;99115.72;;;1.44;93.03
42601;BME280;28229;48.856;9.088;2023-01-25T12:34:40;99115.94;;;1.31;92.83
42601;BME280;28229;48.856;9.088;2023-01-25T12:37:15;99113.66;;;1.38;93.07
42601;BME280;28229;48.856;9.088;2023-01-25T12:39:54;99098.66;;;1.42;93.52
42601;BME280;28229;48.856;9.088;2023-01-25T12:42:30;99099.09;;;1.47;93.81
42601;BME280;28229;48.856;9.088;2023-01-25T12:45:10;99087.47;;;1.41;93.27
42601;BME280;28229;48.856;9.088;2023-01-25T12:50:30;99083.13;;;1.51;92.79
42601;BME280;28229;48.856;9.088;2023-01-25T12:55:48;99074.84;;;1.58;91.84
42601;BME280;28229;48.856;9.088;2023-01-25T13:00:56;99068.53;;;1.50;91.05
42601;BME280;28229;48.856;9.088;2023-01-25T13:06:42;99059.84;;;1.71;92.91
42601;BME280;28229;48.856;9.088;2023-01-25T13:09:19;99051.56;;;1.77;92.52
42601;BME280;28229;48.856;9.088;2023-01-25T13:11:48;99048.13;;;1.77;91.23
42601;BME280;28229;48.856;9.088;2023-01-25T13:16:46;99041.69;;;1.71;91.66
42601;BME280;28229;48.856;9.088;2023-01-25T13:21:56;99034.75;;;1.71;90.84
42601;BME280;28229;48.856;9.088;2023-01-25T13:24:30;99034.22;;;1.87;92.23
42601;BME280;28229;48.856;9.088;2023-01-25T13:27:02;99036.94;;;1.96;91.20
42601;BME280;28229;48.856;9.088;2023-01-25T13:31:59;99029.03;;;1.97;90.49
42601;BME280;28229;48.856;9.088;2023-01-25T13:34:58;99022.50;;;1.93;90.01
42601;BME280;28229;48.856;9.088;2023-01-25T13:37:30;99023.56;;;1.90;90.01
42601;BME280;28229;48.856;9.088;2023-01-25T13:39:58;99021.25;;;1.87;89.85
42601;BME280;28229;48.856;9.088;2023-01-25T13:42:29;99017.28;;;1.93;90.99
42601;BME280;28229;48.856;9.088;2023-01-25T13:44:58;99011.44;;;1.91;90.82
42601;BME280;28229;48.856;9.088;2023-01-25T13:47:29;99004.84;;;1.87;89.94
42601;BME280;28229;48.856;9.088;2023-01-25T13:50:13;99003.91;;;1.98;89.79
42601;BME280;28229;48.856;9.088;2023-01-25T13:53:02;99003.50;;;1.93;89.78
42601;BME280;28229;48.856;9.088;2023-01-25T13:55:37;98996.09;;;1.98;90.01
42601;BME280;28229;48.856;9.088;2023-01-25T13:58:09;99004.44;;;1.82;90.69
42601;BME280;28229;48.856;9.088;2023-01-25T14:00:35;98991.59;;;1.90;91.53
42601;BME280;28229;48.856;9.088;2023-01-25T14:03:04;98984.94;;;1.87;90.80
42601;BME280;28229;48.856;9.088;2023-01-25T14:05:31;98990.53;;;1.93;90.83
42601;BME280;28229;48.856;9.088;2023-01-25T14:07:57;98985.06;;;1.86;91.47
42601;BME280;28229;48.856;9.088;2023-01-25T14:10:25;98992.00;;;1.85;91.30
42601;BME280;28229;48.856;9.088;2023-01-25T14:12:57;98992.97;;;1.84;91.38
42601;BME280;28229;48.856;9.088;2023-01-25T14:15:28;98990.25;;;1.86;91.29
42601;BME280;28229;48.856;9.088;2023-01-25T14:18:10;98992.97;;;1.84;91.28
42601;BME280;28229;48.856;9.088;2023-01-25T14:20:38;98997.06;;;1.77;90.95
42601;BME280;28229;48.856;9.088;2023-01-25T14:23:04;98986.97;;;1.84;91.36
42601;BME280;28229;48.856;9.088;2023-01-25T14:25:32;98995.16;;;1.79;90.67
42601;BME280;28229;48.856;9.088;2023-01-25T14:27:59;98999.22;;;1.82;91.29
42601;BME280;28229;48.856;9.088;2023-01-25T14:30:29;98994.22;;;1.80;91.56
42601;BME280;28229;48.856;9.088;2023-01-25T14:33:00;98986.44;;;1.80;91.45
42601;BME280;28229;48.856;9.088;2023-01-25T14:40:52;98982.75;;;1.93;91.45
42601;BME280;28229;48.856;9.088;2023-01-25T14:43:20;98980.41;;;1.89;90.75
42601;BME280;28229;48.856;9.088;2023-01-25T14:45:47;98970.72;;;1.92;90.59
42601;BME280;28229;48.856;9.088;2023-01-25T14:48:36;98970.44;;;1.85;90.93
42601;BME280;28229;48.856;9.088;2023-01-25T14:51:09;98965.13;;;1.86;90.96
42601;BME280;28229;48.856;9.088;2023-01-25T14:53:39;98962.78;;;1.83;90.19
42601;BME280;28229;48.856;9.088;2023-01-25T14:56:26;98962.09;;;1.81;90.81